Lillooet, Canada
Current Conditions -  °F | °C
As of 10:07 AM on Saturday 25 Oct 2014 (Local Time) from CWLY Reporting Station
Broken Clouds Broken Clouds  
Wind Chill: 41°   Ceiling: 10000
Heat Index: 45°   Visibility: 9mi
Dew Point: 43°   Wind: 6mph
Humidity: 93%   Direction: 190°S
Pressure: 29.58"   Gusts: NA
Location:  50.68°N, 121.93°W
Report Text: CWLY 251707Z AUTO 19005KT 9SM FEW034 BKN100 BKN140 07/06 A2958 RMK SLP020
Loading
Personal Weather Stations






























Interactive Weather Map
Tropical Storm Tracking
New forecast layout! Learn more

10-Day Weather Forecast

Advertisements
Track Severe Weather on mobile